Time;durP1;ratioP1;P1;durP2;ratioP2;P2;SDS_P1;SDS_P2;PMS_P1;PMS_P2;Temp;Humidity;BMP_temperature;BMP_pressure;BME280_temperature;BME280_humidity;BME280_pressure;Samples;Min_cycle;Max_cycle;Signal;HPM_P1;HPM_P2
2024/03/13 00:01:52;;;;;;;3.70;2.70;;;7.90;89.10;;;;;;5042229;28;20029;-64
2024/03/13 00:04:18;;;;;;;3.22;2.90;;;7.90;89.20;;;;;;5045275;28;20403;-63
2024/03/13 00:06:44;;;;;;;4.18;3.13;;;7.90;89.20;;;;;;5039413;28;20043;-63
2024/03/13 00:09:10;;;;;;;3.58;2.67;;;7.90;89.20;;;;;;5046516;28;20025;-64
2024/03/13 00:11:36;;;;;;;4.00;2.95;;;7.90;89.20;;;;;;5040273;28;20021;-63
2024/03/13 00:14:02;;;;;;;3.50;2.50;;;7.90;89.10;;;;;;5043289;28;20033;-63
2024/03/13 00:16:31;;;;;;;5.53;2.88;;;7.90;89.20;;;;;;5043064;28;20051;-63
2024/03/13 00:18:57;;;;;;;3.53;3.00;;;7.90;89.20;;;;;;5043489;28;20037;-63
2024/03/13 00:21:25;;;;;;;3.20;2.53;;;7.90;89.20;;;;;;5044048;28;20041;-63
2024/03/13 00:23:52;;;;;;;2.42;2.22;;;7.90;89.20;;;;;;5038582;28;20649;-62
2024/03/13 00:26:21;;;;;;;3.28;2.67;;;7.80;89.00;;;;;;5045937;28;20045;-63
2024/03/13 00:28:48;;;;;;;3.70;2.50;;;7.80;89.20;;;;;;5040196;28;20091;-62
2024/03/13 00:31:14;;;;;;;3.10;2.10;;;7.80;89.20;;;;;;5043671;28;20064;-61
2024/03/13 00:33:39;;;;;;;2.35;2.13;;;7.80;89.00;;;;;;5049111;28;20054;-63
2024/03/13 00:36:07;;;;;;;2.50;2.30;;;7.90;89.10;;;;;;5050124;28;20536;-63
2024/03/13 00:38:33;;;;;;;2.13;1.92;;;7.80;89.00;;;;;;5046017;28;20037;-63
2024/03/13 00:40:59;;;;;;;2.03;1.85;;;7.80;88.90;;;;;;5036374;28;20153;-64
2024/03/13 00:43:24;;;;;;;2.38;2.00;;;7.80;89.00;;;;;;5049064;28;20052;-62
2024/03/13 00:45:50;;;;;;;2.13;1.90;;;7.80;89.00;;;;;;5039317;28;20040;-63
2024/03/13 00:48:17;;;;;;;2.90;2.20;;;7.80;89.10;;;;;;5039551;28;20044;-63
2024/03/13 00:50:46;;;;;;;2.10;1.90;;;7.80;89.20;;;;;;5038895;28;20036;-63
2024/03/13 00:53:14;;;;;;;3.05;2.05;;;7.70;89.10;;;;;;5040855;28;20104;-64
2024/03/13 00:55:39;;;;;;;2.03;1.83;;;7.80;89.10;;;;;;5041791;28;20045;-63
2024/03/13 00:58:06;;;;;;;2.35;2.10;;;7.80;89.20;;;;;;5045369;28;20562;-64
2024/03/13 01:00:35;;;;;;;2.13;1.90;;;7.80;89.20;;;;;;5042502;28;20041;-62
2024/03/13 01:03:02;;;;;;;2.97;2.00;;;7.70;89.20;;;;;;5042720;28;20419;-61
2024/03/13 01:05:28;;;;;;;2.75;2.42;;;7.80;89.30;;;;;;5045915;28;20033;-62
2024/03/13 01:07:55;;;;;;;2.75;2.17;;;7.70;90.10;;;;;;5037456;28;20036;-62
2024/03/13 01:10:24;;;;;;;2.40;2.20;;;7.70;89.40;;;;;;5043083;28;20025;-62
2024/03/13 01:12:50;;;;;;;2.58;2.22;;;7.80;89.50;;;;;;5042603;28;20032;-64
2024/03/13 01:15:16;;;;;;;2.17;1.98;;;7.70;89.60;;;;;;5043460;28;20032;-64
2024/03/13 01:17:42;;;;;;;2.83;2.42;;;7.70;89.40;;;;;;5040960;28;20063;-64
2024/03/13 01:20:09;;;;;;;2.20;2.00;;;7.80;89.50;;;;;;5045475;28;20194;-64
2024/03/13 01:22:37;;;;;;;2.13;1.92;;;7.80;89.60;;;;;;5046698;28;20037;-63
2024/03/13 01:25:03;;;;;;;1.63;1.52;;;7.70;89.50;;;;;;5045028;28;20038;-64
2024/03/13 01:27:29;;;;;;;2.00;1.80;;;7.70;89.40;;;;;;5046314;28;20044;-64
2024/03/13 01:29:54;;;;;;;3.20;1.73;;;7.70;89.40;;;;;;5039508;28;20030;-62
2024/03/13 01:32:20;;;;;;;1.98;1.67;;;7.70;89.40;;;;;;5040536;28;20410;-63
2024/03/13 01:34:46;;;;;;;1.40;1.30;;;7.70;89.30;;;;;;5044410;28;20062;-64
2024/03/13 01:39:56;;;;;;;1.67;0.70;;;7.70;89.30;;;;;;5044235;28;20261;-63
2024/03/13 01:56:26;;;;;;;0.60;0.60;;;7.50;88.80;;;;;;5045612;28;20124;-64
2024/03/13 01:59:03;;;;;;;1.45;0.77;;;7.50;88.70;;;;;;5046426;28;20033;-64
2024/03/13 02:04:16;;;;;;;2.70;0.60;;;7.40;88.60;;;;;;5047719;28;20098;-63
2024/03/13 02:06:43;;;;;;;0.60;0.55;;;7.40;88.50;;;;;;5051280;28;20032;-65
2024/03/13 02:09:09;;;;;;;0.40;0.40;;;7.30;88.40;;;;;;5048318;28;20110;-64
2024/03/13 02:11:36;;;;;;;0.63;0.63;;;7.30;88.30;;;;;;5046508;28;20029;-64
2024/03/13 02:14:04;;;;;;;0.32;0.30;;;7.30;88.30;;;;;;5044968;28;20061;-62
2024/03/13 02:16:31;;;;;;;0.57;0.30;;;7.20;88.20;;;;;;5046959;28;20064;-64
2024/03/13 02:19:01;;;;;;;0.77;0.57;;;7.20;88.10;;;;;;5046002;28;20037;-62
2024/03/13 02:21:27;;;;;;;0.90;0.38;;;7.10;88.10;;;;;;5045974;28;20037;-63
2024/03/13 02:23:56;;;;;;;0.73;0.40;;;7.10;89.00;;;;;;5044646;28;20124;-63
2024/03/13 02:26:22;;;;;;;0.77;0.45;;;7.10;88.00;;;;;;5042526;28;20120;-65
2024/03/13 02:28:48;;;;;;;0.60;0.50;;;7.00;87.90;;;;;;5048511;28;20125;-64
2024/03/13 02:31:13;;;;;;;0.50;0.40;;;7.00;88.00;;;;;;5041074;28;20117;-63
2024/03/13 02:33:39;;;;;;;0.30;0.30;;;6.90;88.00;;;;;;5047198;28;20037;-62
2024/03/13 02:36:05;;;;;;;0.30;0.30;;;6.90;88.10;;;;;;5042340;28;20044;-62
2024/03/13 02:38:31;;;;;;;0.25;0.25;;;6.90;88.10;;;;;;5044228;28;20029;-63
2024/03/13 02:40:57;;;;;;;0.50;0.30;;;6.90;88.30;;;;;;5047308;28;20044;-64
2024/03/13 02:43:23;;;;;;;0.30;0.30;;;6.80;88.20;;;;;;5050917;28;20315;-64
2024/03/13 02:45:49;;;;;;;0.38;0.38;;;6.80;88.30;;;;;;5050470;28;20515;-64
2024/03/13 02:48:16;;;;;;;0.32;0.32;;;6.80;88.30;;;;;;5050789;28;20025;-63
2024/03/13 02:50:43;;;;;;;1.05;0.22;;;6.80;88.50;;;;;;5050414;28;20609;-62
2024/03/13 02:53:09;;;;;;;3.00;0.40;;;6.80;88.60;;;;;;5049656;28;20498;-64
2024/03/13 02:55:35;;;;;;;1.38;0.30;;;6.80;88.60;;;;;;5045817;28;20061;-64
2024/03/13 02:58:01;;;;;;;0.40;0.30;;;6.80;88.60;;;;;;5040512;28;20048;-64
2024/03/13 03:00:27;;;;;;;1.42;0.43;;;6.80;89.40;;;;;;5042723;28;20037;-63
2024/03/13 03:02:54;;;;;;;0.73;0.35;;;6.80;88.70;;;;;;5042519;28;20041;-63
2024/03/13 03:05:20;;;;;;;0.47;0.30;;;6.80;88.80;;;;;;5041268;28;20033;-64
2024/03/13 03:07:46;;;;;;;0.20;0.20;;;6.80;88.90;;;;;;5045098;28;20037;-64
2024/03/13 03:10:12;;;;;;;0.30;0.30;;;6.80;88.80;;;;;;5046544;28;20090;-64
2024/03/13 03:12:40;;;;;;;0.30;0.30;;;6.80;88.90;;;;;;5048146;28;20532;-62
2024/03/13 03:15:06;;;;;;;0.20;0.20;;;6.80;89.00;;;;;;5036403;28;20120;-62
2024/03/13 03:17:31;;;;;;;0.77;0.30;;;6.80;89.00;;;;;;5049474;28;20468;-64
2024/03/13 03:19:57;;;;;;;0.68;0.40;;;6.80;89.10;;;;;;5046829;28;20033;-63
2024/03/13 03:22:23;;;;;;;0.30;0.30;;;6.90;89.10;;;;;;5044957;28;20029;-64
2024/03/13 03:24:48;;;;;;;0.50;0.50;;;6.90;89.10;;;;;;5045452;28;20488;-64
2024/03/13 03:27:14;;;;;;;0.40;0.40;;;6.90;89.20;;;;;;5046962;28;20145;-63
2024/03/13 03:29:43;;;;;;;0.40;0.32;;;6.80;89.30;;;;;;5038812;28;20036;-63
2024/03/13 03:32:09;;;;;;;0.38;0.38;;;6.80;89.30;;;;;;5043986;28;20033;-63
2024/03/13 03:34:35;;;;;;;0.50;0.40;;;6.90;89.50;;;;;;5048453;28;20108;-63
2024/03/13 03:37:03;;;;;;;2.95;0.50;;;6.80;89.40;;;;;;5043301;28;20045;-63
2024/03/13 03:39:29;;;;;;;0.82;0.40;;;6.80;89.30;;;;;;5046331;28;20085;-61
2024/03/13 03:41:56;;;;;;;1.55;0.40;;;6.80;89.50;;;;;;5045177;28;20626;-62
2024/03/13 03:44:22;;;;;;;0.40;0.38;;;6.80;89.50;;;;;;5044141;28;20053;-64
2024/03/13 03:46:48;;;;;;;0.28;0.28;;;6.80;89.70;;;;;;5043232;28;20159;-63
2024/03/13 03:49:13;;;;;;;0.30;0.30;;;6.80;89.90;;;;;;5044665;28;20032;-61
2024/03/13 03:51:39;;;;;;;0.47;0.47;;;6.80;89.90;;;;;;5048042;28;20037;-64
2024/03/13 03:54:05;;;;;;;0.50;0.40;;;6.80;89.90;;;;;;5043601;28;20040;-63
2024/03/13 03:56:32;;;;;;;0.60;0.35;;;6.80;90.00;;;;;;5048595;28;20040;-63
2024/03/13 03:58:58;;;;;;;0.60;0.60;;;6.80;90.00;;;;;;5040433;28;20072;-63
2024/03/13 04:01:27;;;;;;;0.50;0.50;;;6.70;90.00;;;;;;5044478;28;20064;-63
2024/03/13 04:03:53;;;;;;;0.60;0.60;;;6.80;90.10;;;;;;5046859;28;20116;-63
2024/03/13 04:06:19;;;;;;;0.82;0.60;;;6.80;90.00;;;;;;5047809;28;20477;-63
2024/03/13 04:08:45;;;;;;;0.50;0.50;;;6.80;90.10;;;;;;5048541;28;20466;-63
2024/03/13 04:11:13;;;;;;;0.60;0.60;;;6.80;90.20;;;;;;5045736;28;20041;-61
2024/03/13 04:13:40;;;;;;;0.57;0.57;;;6.80;90.20;;;;;;5044394;28;20159;-63
2024/03/13 04:16:06;;;;;;;0.60;0.60;;;6.80;90.20;;;;;;5046539;28;20037;-63
2024/03/13 04:18:32;;;;;;;0.70;0.68;;;6.80;90.30;;;;;;5044908;28;20030;-62
2024/03/13 04:20:58;;;;;;;0.95;0.60;;;6.80;90.30;;;;;;5041446;28;20064;-64
2024/03/13 04:23:24;;;;;;;0.95;0.90;;;6.80;90.40;;;;;;5045785;28;20058;-64
2024/03/13 04:25:52;;;;;;;2.20;0.57;;;6.80;90.40;;;;;;5044704;28;20029;-62
2024/03/13 04:28:20;;;;;;;0.70;0.70;;;6.80;90.40;;;;;;5040893;28;20132;-63
2024/03/13 04:30:46;;;;;;;0.73;0.73;;;6.90;90.50;;;;;;5043310;28;20069;-64
2024/03/13 04:33:12;;;;;;;1.20;0.80;;;6.90;90.50;;;;;;5043043;28;20072;-63
2024/03/13 04:35:38;;;;;;;0.80;0.80;;;6.90;90.60;;;;;;5049587;28;20056;-63
2024/03/13 04:38:04;;;;;;;1.58;1.00;;;6.90;90.60;;;;;;5048363;28;20560;-63
2024/03/13 04:40:30;;;;;;;0.82;0.82;;;6.80;90.60;;;;;;5042349;28;20116;-63
2024/03/13 04:42:57;;;;;;;1.05;0.95;;;6.90;90.60;;;;;;5046943;28;20120;-64
2024/03/13 04:45:22;;;;;;;0.93;0.93;;;6.90;90.60;;;;;;5040796;28;20048;-63
2024/03/13 04:47:49;;;;;;;0.90;0.90;;;6.90;90.70;;;;;;5048107;28;20037;-63
2024/03/13 04:50:15;;;;;;;0.82;0.80;;;6.90;91.00;;;;;;5048368;28;20059;-64
2024/03/13 04:52:41;;;;;;;1.00;0.90;;;7.00;90.70;;;;;;5041245;28;20052;-64
2024/03/13 04:55:07;;;;;;;1.00;1.00;;;7.00;90.70;;;;;;5043910;28;20447;-62
2024/03/13 04:57:33;;;;;;;1.00;1.00;;;7.00;90.80;;;;;;5045902;28;20171;-63
2024/03/13 04:59:59;;;;;;;0.75;0.70;;;7.00;90.80;;;;;;5041771;28;20025;-63
2024/03/13 05:02:26;;;;;;;0.70;0.70;;;7.00;90.70;;;;;;5048650;28;20073;-63
2024/03/13 05:04:52;;;;;;;0.73;0.73;;;7.00;90.80;;;;;;5038938;28;20047;-63
2024/03/13 05:07:18;;;;;;;0.82;0.82;;;7.00;90.80;;;;;;5045693;28;20032;-63
2024/03/13 05:09:45;;;;;;;0.80;0.80;;;7.10;90.80;;;;;;5042344;28;20029;-64
2024/03/13 05:12:11;;;;;;;0.90;0.90;;;7.10;90.90;;;;;;5043675;28;20423;-62
2024/03/13 05:14:37;;;;;;;1.58;1.27;;;7.10;91.30;;;;;;5044754;28;20504;-63
2024/03/13 05:17:04;;;;;;;1.05;0.98;;;7.10;90.90;;;;;;5045484;28;20083;-63
2024/03/13 05:19:30;;;;;;;1.00;1.00;;;7.10;91.00;;;;;;5043926;28;20133;-63
2024/03/13 05:21:57;;;;;;;0.90;0.90;;;7.10;91.00;;;;;;5041169;28;20052;-63
2024/03/13 05:24:24;;;;;;;1.60;1.15;;;7.10;91.00;;;;;;5043544;28;20124;-63
2024/03/13 05:26:50;;;;;;;1.02;0.77;;;7.20;91.00;;;;;;5044414;28;20066;-64
2024/03/13 05:29:15;;;;;;;1.80;0.95;;;7.20;91.00;;;;;;5045202;28;20124;-63
2024/03/13 05:31:41;;;;;;;1.30;1.20;;;7.20;91.00;;;;;;5044672;28;20459;-62
2024/03/13 05:34:09;;;;;;;1.42;1.00;;;7.30;91.00;;;;;;5049737;28;20554;-63
2024/03/13 05:36:38;;;;;;;1.25;0.98;;;7.30;91.00;;;;;;5051201;28;20094;-62
2024/03/13 05:39:05;;;;;;;0.98;0.98;;;7.30;91.00;;;;;;5053094;28;20039;-63
2024/03/13 05:41:31;;;;;;;1.20;1.10;;;7.40;91.00;;;;;;5045109;28;20033;-63
2024/03/13 05:43:56;;;;;;;2.33;1.42;;;7.40;91.00;;;;;;5051371;28;20074;-63
2024/03/13 05:46:25;;;;;;;1.98;1.77;;;7.40;91.00;;;;;;5051388;28;20822;-63
2024/03/13 05:48:50;;;;;;;1.65;1.55;;;7.50;91.40;;;;;;5049874;28;20041;-63
2024/03/13 05:51:16;;;;;;;1.23;1.20;;;7.50;91.00;;;;;;5049091;28;20044;-63
2024/03/13 05:53:42;;;;;;;1.15;1.10;;;7.50;91.00;;;;;;5048808;28;20078;-63
2024/03/13 05:56:07;;;;;;;1.00;1.00;;;7.60;91.00;;;;;;5048746;28;20563;-63
2024/03/13 05:58:33;;;;;;;1.05;1.05;;;7.60;90.90;;;;;;5050189;28;20049;-63
2024/03/13 06:01:01;;;;;;;1.02;1.02;;;7.60;90.90;;;;;;5047794;28;20065;-63
2024/03/13 06:03:29;;;;;;;0.93;0.93;;;7.70;90.90;;;;;;5045211;28;20032;-63
2024/03/13 06:05:55;;;;;;;1.33;1.10;;;7.70;90.80;;;;;;5050066;28;20078;-63
2024/03/13 06:08:20;;;;;;;1.13;1.10;;;7.70;90.80;;;;;;5050634;28;20075;-62
2024/03/13 06:10:48;;;;;;;1.30;1.20;;;7.70;90.80;;;;;;5051233;28;20423;-65
2024/03/13 06:13:13;;;;;;;1.13;1.05;;;7.70;90.70;;;;;;5049757;28;20412;-61
2024/03/13 06:15:40;;;;;;;1.08;0.98;;;7.70;90.70;;;;;;5049977;28;20076;-63
2024/03/13 06:18:07;;;;;;;0.80;0.80;;;7.70;90.70;;;;;;5048591;28;20361;-63
2024/03/13 06:20:32;;;;;;;0.90;0.90;;;7.70;90.70;;;;;;5051435;28;20504;-61
2024/03/13 06:22:58;;;;;;;1.27;1.17;;;7.70;90.80;;;;;;5048984;28;20044;-62
2024/03/13 06:25:26;;;;;;;1.33;1.23;;;7.60;90.80;;;;;;5050802;28;20071;-63
2024/03/13 06:28:00;;;;;;;1.00;1.00;;;7.70;90.90;;;;;;5046133;28;20115;-62
2024/03/13 06:30:26;;;;;;;2.63;1.17;;;7.60;90.80;;;;;;5049265;28;20461;-63
2024/03/13 06:32:52;;;;;;;1.08;1.08;;;7.60;90.80;;;;;;5049236;28;20119;-63
2024/03/13 06:35:17;;;;;;;1.20;1.08;;;7.70;90.90;;;;;;5052036;28;20112;-63
2024/03/13 06:37:43;;;;;;;1.60;1.50;;;7.60;90.90;;;;;;5051009;28;20485;-63
2024/03/13 06:40:10;;;;;;;1.42;1.33;;;7.70;91.00;;;;;;5052109;28;20496;-63
2024/03/13 06:42:36;;;;;;;2.38;1.20;;;7.70;91.00;;;;;;5050739;28;20499;-63
2024/03/13 06:45:01;;;;;;;1.30;1.20;;;7.70;91.00;;;;;;5048977;28;20044;-63
2024/03/13 06:47:27;;;;;;;1.50;1.40;;;7.70;91.10;;;;;;5051694;28;20045;-61
2024/03/13 06:49:52;;;;;;;1.98;1.50;;;7.70;91.10;;;;;;5047320;28;20037;-63
2024/03/13 06:52:18;;;;;;;1.60;1.50;;;7.70;91.20;;;;;;5051265;28;20438;-63
2024/03/13 06:54:44;;;;;;;1.25;1.15;;;7.70;91.20;;;;;;5048525;28;20136;-63
2024/03/13 06:57:09;;;;;;;1.60;1.50;;;7.70;91.60;;;;;;5050156;28;20095;-61
2024/03/13 06:59:36;;;;;;;2.75;1.33;;;7.70;91.10;;;;;;5048315;28;20036;-63
2024/03/13 07:02:02;;;;;;;1.90;1.70;;;7.70;91.20;;;;;;5050678;28;20060;-63
2024/03/13 07:04:28;;;;;;;2.00;1.80;;;7.70;91.20;;;;;;5047647;28;20496;-63
2024/03/13 07:07:00;;;;;;;2.05;1.90;;;7.70;91.20;;;;;;5049806;28;20032;-63
2024/03/13 07:09:29;;;;;;;2.03;1.85;;;7.70;91.20;;;;;;5050139;28;20508;-61
2024/03/13 07:11:55;;;;;;;1.75;1.65;;;7.80;91.40;;;;;;5050853;28;20435;-63
2024/03/13 07:14:21;;;;;;;3.85;2.60;;;7.80;91.30;;;;;;5048305;28;20037;-63
2024/03/13 07:16:47;;;;;;;18.55;8.60;;;7.80;91.30;;;;;;5050274;28;20281;-63
2024/03/13 07:19:13;;;;;;;26.00;12.25;;;7.80;91.30;;;;;;5049210;28;20565;-62
2024/03/13 07:21:40;;;;;;;5.57;3.00;;;7.80;91.30;;;;;;5049766;28;20400;-62
2024/03/13 07:24:05;;;;;;;2.45;1.63;;;7.80;91.40;;;;;;5050430;28;20112;-61
2024/03/13 07:26:34;;;;;;;1.75;1.65;;;7.80;91.40;;;;;;5062061;28;20116;-63
2024/03/13 07:29:00;;;;;;;1.70;1.17;;;7.90;91.40;;;;;;5047615;28;20421;-63
2024/03/13 07:31:27;;;;;;;1.20;0.90;;;7.90;91.40;;;;;;5047894;28;20508;-63
2024/03/13 07:33:54;;;;;;;0.90;0.90;;;7.90;91.40;;;;;;5048093;28;20036;-62
2024/03/13 07:36:22;;;;;;;2.33;0.90;;;7.90;91.40;;;;;;5044620;28;20064;-63
2024/03/13 07:38:52;;;;;;;1.08;0.90;;;7.90;91.40;;;;;;5047007;28;20025;-63
2024/03/13 07:41:17;;;;;;;2.25;0.98;;;8.00;91.50;;;;;;5052632;28;20033;-62
2024/03/13 07:43:43;;;;;;;7.32;0.82;;;8.00;91.60;;;;;;5048503;28;20450;-63
2024/03/13 07:46:11;;;;;;;2.75;1.20;;;8.00;91.50;;;;;;5059379;28;20041;-63
2024/03/13 07:48:37;;;;;;;2.03;1.00;;;8.00;91.60;;;;;;5045285;28;20500;-63
2024/03/13 07:51:06;;;;;;;1.63;0.70;;;8.10;91.50;;;;;;5053195;28;20074;-62
2024/03/13 07:53:33;;;;;;;1.55;0.80;;;8.10;91.50;;;;;;5050025;28;20094;-61
2024/03/13 07:55:58;;;;;;;1.25;0.90;;;8.10;91.50;;;;;;5047672;28;20116;-62
2024/03/13 07:58:24;;;;;;;1.48;1.00;;;8.20;91.50;;;;;;5057921;28;20567;-62
2024/03/13 08:00:50;;;;;;;0.93;0.90;;;8.20;91.60;;;;;;5055229;28;20040;-64
2024/03/13 08:03:15;;;;;;;2.05;0.80;;;8.20;91.60;;;;;;5052144;28;20032;-62
2024/03/13 08:05:41;;;;;;;1.67;0.90;;;8.20;91.60;;;;;;5050607;28;20033;-61
2024/03/13 08:08:06;;;;;;;0.80;0.80;;;8.30;91.70;;;;;;5048482;28;20032;-62
2024/03/13 08:10:32;;;;;;;1.55;0.80;;;8.30;91.70;;;;;;5047024;28;20037;-60
2024/03/13 08:12:59;;;;;;;0.77;0.77;;;8.40;91.80;;;;;;5049550;28;20040;-62
2024/03/13 08:15:24;;;;;;;0.90;0.80;;;8.40;91.70;;;;;;5046519;28;20523;-63
2024/03/13 08:17:51;;;;;;;1.00;0.90;;;8.40;91.70;;;;;;5048855;28;20025;-63
2024/03/13 08:20:16;;;;;;;1.40;0.68;;;8.50;91.90;;;;;;5046403;28;20021;-62
2024/03/13 08:22:42;;;;;;;0.93;0.80;;;8.50;91.90;;;;;;5048978;28;20043;-63
2024/03/13 08:25:09;;;;;;;0.60;0.60;;;8.60;91.90;;;;;;5051982;28;20027;-62
2024/03/13 08:27:34;;;;;;;0.70;0.70;;;8.60;91.90;;;;;;5053930;28;20033;-63
2024/03/13 08:30:00;;;;;;;0.70;0.70;;;8.70;91.90;;;;;;5047144;28;20064;-62
2024/03/13 08:32:26;;;;;;;1.30;0.68;;;8.70;91.90;;;;;;5047785;28;20033;-61
2024/03/13 08:34:51;;;;;;;0.55;0.55;;;8.80;91.90;;;;;;5047934;28;20055;-62
2024/03/13 08:37:17;;;;;;;0.50;0.50;;;8.80;91.90;;;;;;5046062;28;20099;-62
2024/03/13 08:39:42;;;;;;;0.40;0.40;;;8.90;91.90;;;;;;5047340;28;20025;-62
2024/03/13 08:42:09;;;;;;;0.70;0.70;;;9.00;91.90;;;;;;5045804;28;20102;-63
2024/03/13 08:44:35;;;;;;;0.63;0.63;;;9.00;91.80;;;;;;5050452;28;20062;-62
2024/03/13 08:47:01;;;;;;;0.60;0.60;;;9.10;91.80;;;;;;5046198;28;20574;-62
2024/03/13 08:49:27;;;;;;;0.52;0.52;;;9.10;91.70;;;;;;5050797;28;20125;-62
2024/03/13 08:51:53;;;;;;;0.60;0.60;;;9.20;91.60;;;;;;5046460;28;20049;-62
2024/03/13 08:54:18;;;;;;;0.60;0.60;;;9.30;91.60;;;;;;5047517;28;20112;-63
2024/03/13 08:56:46;;;;;;;0.60;0.50;;;9.30;91.50;;;;;;5047424;28;20183;-63
2024/03/13 08:59:12;;;;;;;0.63;0.47;;;9.30;91.40;;;;;;5041367;28;20101;-62
2024/03/13 09:01:41;;;;;;;0.50;0.50;;;9.30;91.30;;;;;;5045661;28;20125;-63
2024/03/13 09:04:08;;;;;;;0.60;0.60;;;9.40;91.30;;;;;;5044056;28;20055;-63
2024/03/13 09:06:36;;;;;;;0.55;0.55;;;9.40;91.60;;;;;;5045008;28;20392;-63
2024/03/13 09:09:03;;;;;;;0.50;0.50;;;9.40;91.10;;;;;;5050728;28;20068;-62
2024/03/13 09:11:29;;;;;;;0.50;0.50;;;9.40;91.10;;;;;;5051880;28;20040;-62
2024/03/13 09:14:01;;;;;;;0.80;0.80;;;9.40;91.10;;;;;;5053251;28;20043;-63
2024/03/13 09:16:28;;;;;;;0.75;0.60;;;9.30;91.00;;;;;;5051008;28;20120;-63
2024/03/13 09:18:54;;;;;;;0.55;0.55;;;9.40;91.10;;;;;;5048266;28;20045;-62
2024/03/13 09:21:19;;;;;;;0.50;0.50;;;9.30;91.00;;;;;;5050985;28;20030;-62
2024/03/13 09:23:45;;;;;;;0.70;0.70;;;9.40;91.00;;;;;;5051214;28;20033;-63
2024/03/13 09:26:12;;;;;;;3.20;0.70;;;9.30;91.00;;;;;;5053850;28;20116;-62
2024/03/13 09:28:37;;;;;;;7.05;0.60;;;9.30;91.20;;;;;;5053924;28;20083;-62
2024/03/13 09:31:03;;;;;;;1.23;0.70;;;9.30;91.20;;;;;;5052821;28;20037;-61
2024/03/13 09:33:30;;;;;;;1.27;0.73;;;9.30;91.20;;;;;;5050064;28;20121;-63
2024/03/13 09:35:56;;;;;;;0.70;0.70;;;9.30;91.30;;;;;;5050448;28;20047;-63
2024/03/13 09:38:22;;;;;;;0.60;0.60;;;9.40;91.40;;;;;;5048016;28;20515;-63
2024/03/13 09:40:48;;;;;;;0.73;0.60;;;9.40;91.40;;;;;;5054013;28;20029;-63
2024/03/13 09:43:15;;;;;;;1.33;0.77;;;9.50;91.50;;;;;;5049663;28;20028;-62
2024/03/13 09:45:43;;;;;;;2.35;0.80;;;9.40;91.50;;;;;;5053749;28;20059;-62
2024/03/13 09:48:11;;;;;;;1.40;0.70;;;9.50;91.40;;;;;;5048384;28;20500;-63
2024/03/13 09:50:37;;;;;;;2.72;0.70;;;9.50;91.40;;;;;;5049963;28;20045;-62
2024/03/13 09:53:03;;;;;;;0.70;0.70;;;9.50;91.40;;;;;;5050416;28;20040;-62
2024/03/13 09:55:29;;;;;;;0.88;0.50;;;9.50;91.80;;;;;;5050503;28;20037;-62
2024/03/13 09:57:55;;;;;;;0.50;0.47;;;9.60;91.40;;;;;;5047800;28;20040;-63
2024/03/13 10:00:20;;;;;;;0.60;0.60;;;9.60;91.50;;;;;;5048828;28;20029;-62
2024/03/13 10:02:54;;;;;;;0.60;0.55;;;9.60;91.50;;;;;;5049950;28;20074;-63
2024/03/13 10:05:20;;;;;;;0.60;0.60;;;9.70;91.60;;;;;;5055259;28;20120;-63
2024/03/13 10:07:50;;;;;;;0.60;0.60;;;9.70;91.60;;;;;;5047627;28;20164;-62
2024/03/13 10:10:27;;;;;;;0.45;0.45;;;9.70;91.80;;;;;;5051914;28;20119;-63
2024/03/13 10:12:56;;;;;;;0.77;0.60;;;9.80;91.80;;;;;;5049413;28;20108;-62
2024/03/13 10:15:22;;;;;;;0.50;0.50;;;9.90;91.90;;;;;;5056212;28;20553;-62
2024/03/13 10:18:02;;;;;;;0.80;0.60;;;9.90;92.00;;;;;;5046443;28;20072;-63
2024/03/13 10:20:43;;;;;;;0.90;0.63;;;10.00;92.10;;;;;;5049118;28;20432;-62
2024/03/13 10:23:12;;;;;;;0.52;0.50;;;10.00;92.10;;;;;;5049297;28;20026;-63
2024/03/13 10:25:40;;;;;;;1.00;0.55;;;10.20;92.10;;;;;;5052615;28;20116;-62
2024/03/13 10:28:06;;;;;;;0.43;0.43;;;10.20;92.10;;;;;;5054134;28;20064;-63
2024/03/13 10:30:31;;;;;;;0.28;0.28;;;10.40;92.10;;;;;;5050469;28;20550;-63
2024/03/13 10:32:59;;;;;;;0.40;0.40;;;10.40;92.10;;;;;;5048295;28;20033;-62
2024/03/13 10:35:26;;;;;;;0.30;0.20;;;10.60;92.10;;;;;;5049939;28;20045;-63
2024/03/13 10:37:53;;;;;;;0.28;0.28;;;10.60;92.10;;;;;;5050448;28;20032;-63
2024/03/13 10:40:19;;;;;;;0.65;0.30;;;10.70;92.00;;;;;;5058464;28;20088;-63
2024/03/13 10:42:47;;;;;;;0.43;0.40;;;10.90;91.80;;;;;;5051160;28;20044;-63
2024/03/13 10:45:14;;;;;;;0.20;0.20;;;10.90;91.60;;;;;;5048254;28;20108;-63
2024/03/13 10:47:40;;;;;;;1.10;0.30;;;11.00;91.60;;;;;;5052730;28;20152;-63
2024/03/13 10:50:08;;;;;;;0.65;0.30;;;11.10;91.40;;;;;;5049397;28;20086;-62
2024/03/13 10:52:35;;;;;;;0.25;0.25;;;11.10;91.30;;;;;;5049474;28;20523;-62
2024/03/13 10:55:02;;;;;;;1.73;0.30;;;11.20;91.30;;;;;;5047338;28;20043;-63
2024/03/13 10:57:27;;;;;;;1.17;0.50;;;11.20;91.20;;;;;;5048426;28;20034;-63
2024/03/13 10:59:53;;;;;;;1.77;0.50;;;11.30;91.10;;;;;;5049335;28;20040;-63
2024/03/13 11:02:18;;;;;;;1.67;0.70;;;11.40;91.00;;;;;;5049375;28;20116;-62
2024/03/13 11:04:45;;;;;;;0.75;0.60;;;11.40;90.80;;;;;;5048026;28;20029;-63
2024/03/13 11:07:12;;;;;;;0.73;0.60;;;11.40;90.70;;;;;;5046166;28;20033;-63
2024/03/13 11:09:38;;;;;;;0.35;0.35;;;11.40;91.00;;;;;;5049745;28;20060;-63
2024/03/13 11:12:18;;;;;;;1.25;0.25;;;11.50;90.50;;;;;;5047255;28;20033;-62
2024/03/13 11:14:52;;;;;;;2.53;0.50;;;11.50;90.50;;;;;;5047650;28;20480;-63
2024/03/13 11:17:22;;;;;;;0.93;0.50;;;11.50;90.40;;;;;;5044163;28;20091;-63
2024/03/13 11:20:07;;;;;;;1.02;0.60;;;11.50;90.40;;;;;;5049604;28;20381;-63
2024/03/13 11:22:35;;;;;;;4.88;0.93;;;11.50;90.50;;;;;;5048002;28;20072;-63
2024/03/13 11:25:05;;;;;;;1.23;0.88;;;11.50;90.50;;;;;;5051086;28;20110;-63
2024/03/13 11:27:37;;;;;;;1.42;1.02;;;11.50;90.50;;;;;;5054280;28;20461;-63
2024/03/13 11:30:07;;;;;;;1.10;0.80;;;11.50;90.50;;;;;;5048456;28;20098;-63
2024/03/13 11:32:32;;;;;;;1.10;0.70;;;11.60;90.40;;;;;;5046916;28;20056;-63
2024/03/13 11:34:59;;;;;;;0.77;0.63;;;11.60;90.30;;;;;;5046392;28;20500;-63
2024/03/13 11:37:25;;;;;;;0.73;0.73;;;11.60;90.20;;;;;;5045116;28;20045;-63
2024/03/13 11:39:55;;;;;;;0.80;0.63;;;11.60;90.20;;;;;;5047998;28;20033;-63
2024/03/13 11:42:29;;;;;;;0.80;0.63;;;11.60;90.60;;;;;;5048850;28;20029;-63
2024/03/13 11:45:18;;;;;;;1.08;0.80;;;11.70;90.40;;;;;;5046249;28;20504;-62
2024/03/13 11:47:48;;;;;;;1.10;0.77;;;11.70;90.40;;;;;;5044190;28;20107;-62
2024/03/13 11:50:14;;;;;;;1.52;0.90;;;11.80;90.30;;;;;;5052232;28;20033;-63
2024/03/13 11:53:06;;;;;;;0.93;0.90;;;11.70;90.10;;;;;;5047132;28;20126;-63
2024/03/13 11:55:34;;;;;;;1.67;0.90;;;11.70;90.00;;;;;;5047514;28;20036;-63
2024/03/13 11:58:03;;;;;;;1.75;0.90;;;11.80;90.00;;;;;;5048282;28;20036;-63
2024/03/13 12:00:29;;;;;;;1.10;1.00;;;11.80;90.00;;;;;;5047749;28;20056;-63
2024/03/13 12:02:58;;;;;;;1.88;1.00;;;11.80;90.10;;;;;;5046582;28;20076;-63
2024/03/13 12:05:31;;;;;;;0.93;0.70;;;11.80;90.10;;;;;;5046579;28;20046;-63
2024/03/13 12:07:57;;;;;;;3.42;0.75;;;11.80;90.10;;;;;;5046931;28;20037;-63
2024/03/13 12:10:27;;;;;;;1.10;1.00;;;11.80;90.00;;;;;;5047387;28;20118;-63
2024/03/13 12:12:53;;;;;;;1.00;0.90;;;11.80;90.10;;;;;;5047409;28;20037;-63
2024/03/13 12:15:20;;;;;;;0.80;0.80;;;11.80;90.10;;;;;;5048057;28;20033;-63
2024/03/13 12:17:47;;;;;;;1.63;1.50;;;11.80;90.00;;;;;;5045363;28;20040;-63
2024/03/13 12:20:14;;;;;;;2.35;1.20;;;11.80;90.00;;;;;;5046620;28;20036;-63
2024/03/13 12:22:44;;;;;;;1.08;1.00;;;11.90;90.00;;;;;;5047783;28;20056;-64
2024/03/13 12:25:13;;;;;;;1.75;1.13;;;11.80;90.00;;;;;;5046408;28;20043;-63
2024/03/13 12:27:52;;;;;;;11.55;8.38;;;11.90;89.90;;;;;;5047956;28;20311;-64
2024/03/13 12:30:21;;;;;;;2.80;2.60;;;11.90;90.00;;;;;;5048873;28;20428;-63
2024/03/13 12:32:50;;;;;;;2.55;1.35;;;11.90;90.00;;;;;;5043890;28;20507;-63
2024/03/13 12:35:16;;;;;;;1.40;1.30;;;11.90;90.00;;;;;;5052472;28;20033;-63
2024/03/13 12:37:50;;;;;;;1.88;1.20;;;11.90;90.10;;;;;;5047627;28;20086;-63
2024/03/13 12:40:16;;;;;;;0.90;0.90;;;11.90;90.10;;;;;;5047639;28;20483;-64
2024/03/13 12:42:51;;;;;;;1.05;1.00;;;11.90;90.10;;;;;;5046318;28;20037;-63
2024/03/13 12:45:17;;;;;;;;;;;11.90;90.10;;;;;;5047612;28;20037;-64
2024/03/13 12:47:43;;;;;;;2.17;1.30;;;12.00;90.20;;;;;;5047111;28;20450;-63
2024/03/13 12:50:15;;;;;;;1.98;1.50;;;12.00;90.00;;;;;;5044503;28;20045;-63
2024/03/13 12:52:49;;;;;;;1.58;1.48;;;12.10;90.20;;;;;;5036578;28;20120;-63
2024/03/13 12:55:20;;;;;;;2.33;1.52;;;12.10;90.50;;;;;;5047610;28;20033;-63
2024/03/13 12:57:49;;;;;;;1.55;1.45;;;12.10;90.20;;;;;;5047540;28;20033;-63
2024/03/13 13:00:18;;;;;;;1.23;1.20;;;12.10;90.00;;;;;;5043162;28;20029;-63
2024/03/13 13:02:50;;;;;;;1.52;1.42;;;12.10;89.90;;;;;;5047865;28;20181;-61
2024/03/13 13:05:16;;;;;;;1.40;1.30;;;12.10;89.70;;;;;;5043853;28;20037;-63
2024/03/13 13:07:52;;;;;;;1.50;1.40;;;12.10;89.60;;;;;;5043640;28;20048;-63
2024/03/13 13:10:24;;;;;;;1.75;1.30;;;12.00;89.70;;;;;;5041472;28;20037;-63
2024/03/13 13:12:53;;;;;;;1.70;1.60;;;12.00;89.70;;;;;;5045602;28;20377;-63
2024/03/13 13:15:19;;;;;;;1.42;1.30;;;12.00;89.90;;;;;;5051367;28;20033;-62